DAUG/GHA METAR and TAF weather

Enter ICAO airport designator
Station Type Date Time Source
DAUG METAR 2019/07/15 20:00 UTC NOAA

DAUG 152000Z 00000KT CAVOK 36/01 Q1011


Station Type Date Time Source
DAUG Decoded METAR 2019/07/15 20:00 UTC NOAA

Ghardaia, Algeria (DAUG) 32-23N 003-49E 450M
Jul 15, 2019 - 04:00 PM EDT / 2019.07.15 2000 UTC
Wind: Calm:0
Visibility: greater than 7 mile(s):0
Temperature: 96 F (36 C)
Dew Point: 33 F (1 C)
Relative Humidity: 11%
Pressure (altimeter): 29.85 in. Hg (1011 hPa)
ob: DAUG 152000Z 00000KT CAVOK 36/01 Q1011
cycle: 20

Station Type Date Time Source
DAUG TAF 2019/07/15 18:33 UTC NOAA

TAF DAUG 151700Z 1518/1618 VRB02KT 8000 NSC
BECMG 1600/1603 02010KT PROB30 1608/1612 02020KT 5000 DRSA

Example: see airport list